sensor_id;sensor_type;location;lat;lon;timestamp;P1;durP1;ratioP1;P2;durP2;ratioP2
38629;SDS011;24384;51.988;4.644;2023-08-17T00:01:37;4.55;;;1.52;;
38629;SDS011;24384;51.988;4.644;2023-08-17T00:04:02;6.20;;;1.80;;
38629;SDS011;24384;51.988;4.644;2023-08-17T00:06:28;5.68;;;2.78;;
38629;SDS011;24384;51.988;4.644;2023-08-17T00:08:53;4.70;;;1.77;;
38629;SDS011;24384;51.988;4.644;2023-08-17T00:11:18;4.53;;;1.88;;
38629;SDS011;24384;51.988;4.644;2023-08-17T00:13:43;4.97;;;1.60;;
38629;SDS011;24384;51.988;4.644;2023-08-17T00:16:09;3.90;;;1.80;;
38629;SDS011;24384;51.988;4.644;2023-08-17T00:18:34;3.88;;;1.52;;
38629;SDS011;24384;51.988;4.644;2023-08-17T00:20:59;2.95;;;1.60;;
38629;SDS011;24384;51.988;4.644;2023-08-17T00:23:24;3.22;;;1.80;;
38629;SDS011;24384;51.988;4.644;2023-08-17T00:25:50;6.75;;;2.10;;
38629;SDS011;24384;51.988;4.644;2023-08-17T00:28:15;5.57;;;1.80;;
38629;SDS011;24384;51.988;4.644;2023-08-17T00:30:41;7.53;;;2.03;;
38629;SDS011;24384;51.988;4.644;2023-08-17T00:33:06;7.75;;;2.13;;
38629;SDS011;24384;51.988;4.644;2023-08-17T00:35:31;4.55;;;1.70;;
38629;SDS011;24384;51.988;4.644;2023-08-17T00:37:57;3.22;;;1.73;;
38629;SDS011;24384;51.988;4.644;2023-08-17T00:40:23;6.20;;;1.95;;
38629;SDS011;24384;51.988;4.644;2023-08-17T00:42:48;7.50;;;1.80;;
38629;SDS011;24384;51.988;4.644;2023-08-17T00:45:14;4.60;;;1.83;;
38629;SDS011;24384;51.988;4.644;2023-08-17T00:47:41;4.25;;;1.88;;
38629;SDS011;24384;51.988;4.644;2023-08-17T00:50:07;2.70;;;1.38;;
38629;SDS011;24384;51.988;4.644;2023-08-17T00:52:33;6.32;;;2.03;;
38629;SDS011;24384;51.988;4.644;2023-08-17T00:55:01;5.65;;;1.67;;
38629;SDS011;24384;51.988;4.644;2023-08-17T00:57:27;4.40;;;1.77;;
38629;SDS011;24384;51.988;4.644;2023-08-17T00:59:53;4.22;;;1.70;;
38629;SDS011;24384;51.988;4.644;2023-08-17T01:02:18;12.02;;;2.03;;
38629;SDS011;24384;51.988;4.644;2023-08-17T01:04:44;4.70;;;1.40;;
38629;SDS011;24384;51.988;4.644;2023-08-17T01:07:09;6.43;;;1.60;;
38629;SDS011;24384;51.988;4.644;2023-08-17T01:09:35;6.53;;;2.00;;
38629;SDS011;24384;51.988;4.644;2023-08-17T01:12:17;3.65;;;1.70;;
38629;SDS011;24384;51.988;4.644;2023-08-17T01:17:33;5.18;;;1.83;;
38629;SDS011;24384;51.988;4.644;2023-08-17T01:20:11;6.03;;;1.95;;
38629;SDS011;24384;51.988;4.644;2023-08-17T01:22:42;12.45;;;2.47;;
38629;SDS011;24384;51.988;4.644;2023-08-17T01:25:11;8.00;;;1.90;;
38629;SDS011;24384;51.988;4.644;2023-08-17T01:27:39;4.45;;;1.55;;
38629;SDS011;24384;51.988;4.644;2023-08-17T01:30:09;4.72;;;1.73;;
38629;SDS011;24384;51.988;4.644;2023-08-17T01:32:44;5.50;;;1.60;;
38629;SDS011;24384;51.988;4.644;2023-08-17T01:38:02;7.20;;;1.75;;
38629;SDS011;24384;51.988;4.644;2023-08-17T01:40:31;6.85;;;1.90;;
38629;SDS011;24384;51.988;4.644;2023-08-17T01:42:57;6.40;;;1.77;;
38629;SDS011;24384;51.988;4.644;2023-08-17T01:45:24;4.70;;;1.80;;
38629;SDS011;24384;51.988;4.644;2023-08-17T01:47:50;5.30;;;1.70;;
38629;SDS011;24384;51.988;4.644;2023-08-17T01:50:15;6.00;;;1.98;;
38629;SDS011;24384;51.988;4.644;2023-08-17T01:52:41;10.90;;;2.95;;
38629;SDS011;24384;51.988;4.644;2023-08-17T01:55:06;8.95;;;2.10;;
38629;SDS011;24384;51.988;4.644;2023-08-17T01:57:32;8.48;;;2.30;;
38629;SDS011;24384;51.988;4.644;2023-08-17T01:59:57;6.88;;;1.50;;
38629;SDS011;24384;51.988;4.644;2023-08-17T02:02:22;4.45;;;1.95;;
38629;SDS011;24384;51.988;4.644;2023-08-17T02:04:48;4.70;;;2.30;;
38629;SDS011;24384;51.988;4.644;2023-08-17T02:07:14;5.28;;;2.00;;
38629;SDS011;24384;51.988;4.644;2023-08-17T02:09:39;4.55;;;1.70;;
38629;SDS011;24384;51.988;4.644;2023-08-17T02:12:06;4.30;;;1.80;;
38629;SDS011;24384;51.988;4.644;2023-08-17T02:14:31;4.72;;;1.52;;
38629;SDS011;24384;51.988;4.644;2023-08-17T02:16:56;5.65;;;1.67;;
38629;SDS011;24384;51.988;4.644;2023-08-17T02:19:21;6.38;;;1.70;;
38629;SDS011;24384;51.988;4.644;2023-08-17T02:21:47;4.30;;;1.67;;
38629;SDS011;24384;51.988;4.644;2023-08-17T02:24:12;5.57;;;1.70;;
38629;SDS011;24384;51.988;4.644;2023-08-17T02:26:38;3.80;;;1.58;;
38629;SDS011;24384;51.988;4.644;2023-08-17T02:29:05;7.05;;;1.83;;
38629;SDS011;24384;51.988;4.644;2023-08-17T02:31:30;3.83;;;1.80;;
38629;SDS011;24384;51.988;4.644;2023-08-17T02:33:55;4.80;;;2.72;;
38629;SDS011;24384;51.988;4.644;2023-08-17T02:36:25;4.63;;;2.05;;
38629;SDS011;24384;51.988;4.644;2023-08-17T02:38:51;11.57;;;2.25;;
38629;SDS011;24384;51.988;4.644;2023-08-17T02:41:16;10.50;;;2.83;;
38629;SDS011;24384;51.988;4.644;2023-08-17T02:43:41;3.17;;;2.10;;
38629;SDS011;24384;51.988;4.644;2023-08-17T02:46:07;6.50;;;2.30;;
38629;SDS011;24384;51.988;4.644;2023-08-17T02:48:32;7.80;;;2.15;;
38629;SDS011;24384;51.988;4.644;2023-08-17T02:50:59;9.88;;;3.38;;
38629;SDS011;24384;51.988;4.644;2023-08-17T02:53:25;8.25;;;2.58;;
38629;SDS011;24384;51.988;4.644;2023-08-17T02:55:50;6.53;;;2.25;;
38629;SDS011;24384;51.988;4.644;2023-08-17T02:58:15;5.43;;;2.42;;
38629;SDS011;24384;51.988;4.644;2023-08-17T03:00:40;9.25;;;2.53;;
38629;SDS011;24384;51.988;4.644;2023-08-17T03:03:06;3.15;;;1.63;;
38629;SDS011;24384;51.988;4.644;2023-08-17T03:05:31;6.90;;;2.00;;
38629;SDS011;24384;51.988;4.644;2023-08-17T03:07:56;10.02;;;2.28;;
38629;SDS011;24384;51.988;4.644;2023-08-17T03:10:22;5.30;;;2.10;;
38629;SDS011;24384;51.988;4.644;2023-08-17T03:12:47;6.38;;;2.55;;
38629;SDS011;24384;51.988;4.644;2023-08-17T03:15:13;7.25;;;1.90;;
38629;SDS011;24384;51.988;4.644;2023-08-17T03:17:38;10.13;;;3.10;;
38629;SDS011;24384;51.988;4.644;2023-08-17T03:20:03;6.80;;;2.92;;
38629;SDS011;24384;51.988;4.644;2023-08-17T03:22:31;4.00;;;1.70;;
38629;SDS011;24384;51.988;4.644;2023-08-17T03:24:56;6.13;;;2.03;;
38629;SDS011;24384;51.988;4.644;2023-08-17T03:27:22;11.32;;;2.60;;
38629;SDS011;24384;51.988;4.644;2023-08-17T03:29:47;3.60;;;1.90;;
38629;SDS011;24384;51.988;4.644;2023-08-17T03:32:12;4.82;;;2.20;;
38629;SDS011;24384;51.988;4.644;2023-08-17T03:34:37;9.23;;;1.80;;
38629;SDS011;24384;51.988;4.644;2023-08-17T03:37:03;11.48;;;2.78;;
38629;SDS011;24384;51.988;4.644;2023-08-17T03:39:29;4.03;;;1.80;;
38629;SDS011;24384;51.988;4.644;2023-08-17T03:41:55;7.25;;;2.05;;
38629;SDS011;24384;51.988;4.644;2023-08-17T03:44:21;6.13;;;2.50;;
38629;SDS011;24384;51.988;4.644;2023-08-17T03:46:46;9.45;;;3.05;;
38629;SDS011;24384;51.988;4.644;2023-08-17T03:49:11;12.38;;;3.88;;
38629;SDS011;24384;51.988;4.644;2023-08-17T03:51:38;6.75;;;2.22;;
38629;SDS011;24384;51.988;4.644;2023-08-17T03:54:03;8.85;;;3.17;;
38629;SDS011;24384;51.988;4.644;2023-08-17T03:56:28;9.00;;;2.28;;
38629;SDS011;24384;51.988;4.644;2023-08-17T03:58:54;8.00;;;2.20;;
38629;SDS011;24384;51.988;4.644;2023-08-17T04:01:19;5.40;;;2.35;;
38629;SDS011;24384;51.988;4.644;2023-08-17T04:03:45;8.38;;;2.25;;
38629;SDS011;24384;51.988;4.644;2023-08-17T04:06:10;7.82;;;2.28;;
38629;SDS011;24384;51.988;4.644;2023-08-17T04:08:36;6.68;;;2.50;;
38629;SDS011;24384;51.988;4.644;2023-08-17T04:11:02;5.05;;;1.90;;
38629;SDS011;24384;51.988;4.644;2023-08-17T04:13:28;3.85;;;1.90;;
38629;SDS011;24384;51.988;4.644;2023-08-17T04:15:53;7.30;;;2.17;;
38629;SDS011;24384;51.988;4.644;2023-08-17T04:18:19;9.93;;;2.08;;
38629;SDS011;24384;51.988;4.644;2023-08-17T04:20:44;6.03;;;2.10;;
38629;SDS011;24384;51.988;4.644;2023-08-17T04:23:10;5.20;;;1.98;;
38629;SDS011;24384;51.988;4.644;2023-08-17T04:25:36;6.18;;;1.98;;
38629;SDS011;24384;51.988;4.644;2023-08-17T04:28:01;5.38;;;1.77;;
38629;SDS011;24384;51.988;4.644;2023-08-17T04:30:26;6.88;;;2.58;;
38629;SDS011;24384;51.988;4.644;2023-08-17T04:32:52;7.68;;;2.60;;
38629;SDS011;24384;51.988;4.644;2023-08-17T04:35:18;5.95;;;2.33;;
38629;SDS011;24384;51.988;4.644;2023-08-17T04:37:47;8.18;;;2.45;;
38629;SDS011;24384;51.988;4.644;2023-08-17T04:40:12;8.82;;;2.40;;
38629;SDS011;24384;51.988;4.644;2023-08-17T04:42:38;7.93;;;1.92;;
38629;SDS011;24384;51.988;4.644;2023-08-17T04:45:04;4.78;;;1.58;;
38629;SDS011;24384;51.988;4.644;2023-08-17T04:47:29;7.40;;;1.92;;
38629;SDS011;24384;51.988;4.644;2023-08-17T04:49:55;4.82;;;1.83;;
38629;SDS011;24384;51.988;4.644;2023-08-17T04:52:20;6.22;;;1.80;;
38629;SDS011;24384;51.988;4.644;2023-08-17T04:54:45;5.53;;;1.60;;
38629;SDS011;24384;51.988;4.644;2023-08-17T04:57:10;4.53;;;2.15;;
38629;SDS011;24384;51.988;4.644;2023-08-17T04:59:36;8.32;;;1.95;;
38629;SDS011;24384;51.988;4.644;2023-08-17T05:02:01;4.55;;;2.35;;
38629;SDS011;24384;51.988;4.644;2023-08-17T05:04:26;5.68;;;1.95;;
38629;SDS011;24384;51.988;4.644;2023-08-17T05:06:52;3.35;;;1.50;;
38629;SDS011;24384;51.988;4.644;2023-08-17T05:09:17;5.22;;;2.03;;
38629;SDS011;24384;51.988;4.644;2023-08-17T05:11:42;3.65;;;1.83;;
38629;SDS011;24384;51.988;4.644;2023-08-17T05:14:08;6.28;;;2.00;;
38629;SDS011;24384;51.988;4.644;2023-08-17T05:16:34;9.68;;;2.05;;
38629;SDS011;24384;51.988;4.644;2023-08-17T05:18:59;4.05;;;1.65;;
38629;SDS011;24384;51.988;4.644;2023-08-17T05:21:25;10.93;;;2.08;;
38629;SDS011;24384;51.988;4.644;2023-08-17T05:23:50;4.15;;;1.60;;
38629;SDS011;24384;51.988;4.644;2023-08-17T05:26:16;5.43;;;2.47;;
38629;SDS011;24384;51.988;4.644;2023-08-17T05:28:41;10.73;;;2.75;;
38629;SDS011;24384;51.988;4.644;2023-08-17T05:31:08;3.35;;;1.40;;
38629;SDS011;24384;51.988;4.644;2023-08-17T05:33:34;4.47;;;2.03;;
38629;SDS011;24384;51.988;4.644;2023-08-17T05:35:59;4.25;;;1.58;;
38629;SDS011;24384;51.988;4.644;2023-08-17T05:38:24;5.35;;;1.42;;
38629;SDS011;24384;51.988;4.644;2023-08-17T05:40:57;7.25;;;1.65;;
38629;SDS011;24384;51.988;4.644;2023-08-17T05:43:23;3.70;;;1.33;;
38629;SDS011;24384;51.988;4.644;2023-08-17T05:45:49;6.85;;;1.55;;
38629;SDS011;24384;51.988;4.644;2023-08-17T05:48:14;4.03;;;1.50;;
38629;SDS011;24384;51.988;4.644;2023-08-17T05:50:42;8.02;;;1.73;;
38629;SDS011;24384;51.988;4.644;2023-08-17T05:53:08;5.82;;;1.55;;
38629;SDS011;24384;51.988;4.644;2023-08-17T05:55:33;4.50;;;1.92;;
38629;SDS011;24384;51.988;4.644;2023-08-17T05:57:59;7.95;;;2.15;;
38629;SDS011;24384;51.988;4.644;2023-08-17T06:00:25;5.93;;;1.75;;
38629;SDS011;24384;51.988;4.644;2023-08-17T06:02:50;7.57;;;1.83;;
38629;SDS011;24384;51.988;4.644;2023-08-17T06:05:16;5.70;;;2.10;;
38629;SDS011;24384;51.988;4.644;2023-08-17T06:07:42;9.88;;;1.70;;
38629;SDS011;24384;51.988;4.644;2023-08-17T06:10:08;10.18;;;2.20;;
38629;SDS011;24384;51.988;4.644;2023-08-17T06:12:35;5.80;;;1.73;;
38629;SDS011;24384;51.988;4.644;2023-08-17T06:15:04;6.13;;;1.58;;
38629;SDS011;24384;51.988;4.644;2023-08-17T06:17:29;6.55;;;1.50;;
38629;SDS011;24384;51.988;4.644;2023-08-17T06:19:55;6.97;;;1.50;;
38629;SDS011;24384;51.988;4.644;2023-08-17T06:22:20;9.85;;;2.10;;
38629;SDS011;24384;51.988;4.644;2023-08-17T06:24:45;6.70;;;2.10;;
38629;SDS011;24384;51.988;4.644;2023-08-17T06:29:39;5.95;;;2.03;;
38629;SDS011;24384;51.988;4.644;2023-08-17T06:32:04;8.15;;;1.45;;
38629;SDS011;24384;51.988;4.644;2023-08-17T06:34:29;4.32;;;1.63;;
38629;SDS011;24384;51.988;4.644;2023-08-17T06:36:59;7.75;;;1.75;;
38629;SDS011;24384;51.988;4.644;2023-08-17T06:39:26;8.98;;;2.55;;
38629;SDS011;24384;51.988;4.644;2023-08-17T06:41:52;7.07;;;1.77;;
38629;SDS011;24384;51.988;4.644;2023-08-17T06:44:17;6.05;;;2.38;;
38629;SDS011;24384;51.988;4.644;2023-08-17T06:46:43;6.55;;;2.17;;
38629;SDS011;24384;51.988;4.644;2023-08-17T06:49:08;5.30;;;1.55;;
38629;SDS011;24384;51.988;4.644;2023-08-17T06:51:33;7.88;;;1.70;;
38629;SDS011;24384;51.988;4.644;2023-08-17T06:53:59;3.88;;;1.52;;
38629;SDS011;24384;51.988;4.644;2023-08-17T06:56:24;5.95;;;1.98;;
38629;SDS011;24384;51.988;4.644;2023-08-17T06:58:50;3.80;;;1.90;;
38629;SDS011;24384;51.988;4.644;2023-08-17T07:01:15;6.38;;;2.05;;
38629;SDS011;24384;51.988;4.644;2023-08-17T07:03:41;8.50;;;2.00;;
38629;SDS011;24384;51.988;4.644;2023-08-17T07:06:06;5.97;;;1.85;;
38629;SDS011;24384;51.988;4.644;2023-08-17T07:08:32;6.72;;;2.17;;
38629;SDS011;24384;51.988;4.644;2023-08-17T07:10:58;3.83;;;1.50;;
38629;SDS011;24384;51.988;4.644;2023-08-17T07:13:23;5.53;;;1.90;;
38629;SDS011;24384;51.988;4.644;2023-08-17T07:15:48;4.93;;;1.92;;
38629;SDS011;24384;51.988;4.644;2023-08-17T07:18:14;8.20;;;3.10;;
38629;SDS011;24384;51.988;4.644;2023-08-17T07:20:40;8.65;;;2.13;;
38629;SDS011;24384;51.988;4.644;2023-08-17T07:23:05;7.38;;;2.22;;
38629;SDS011;24384;51.988;4.644;2023-08-17T07:25:30;6.38;;;2.72;;
38629;SDS011;24384;51.988;4.644;2023-08-17T07:27:55;6.88;;;2.08;;
38629;SDS011;24384;51.988;4.644;2023-08-17T07:30:21;6.43;;;2.20;;
38629;SDS011;24384;51.988;4.644;2023-08-17T07:32:47;7.75;;;2.30;;
38629;SDS011;24384;51.988;4.644;2023-08-17T07:35:12;5.13;;;2.10;;
38629;SDS011;24384;51.988;4.644;2023-08-17T07:37:37;7.03;;;2.00;;
38629;SDS011;24384;51.988;4.644;2023-08-17T07:40:03;7.95;;;2.65;;
38629;SDS011;24384;51.988;4.644;2023-08-17T07:42:28;7.53;;;2.40;;
38629;SDS011;24384;51.988;4.644;2023-08-17T07:44:55;10.90;;;2.55;;
38629;SDS011;24384;51.988;4.644;2023-08-17T07:47:20;5.00;;;2.13;;
38629;SDS011;24384;51.988;4.644;2023-08-17T07:49:46;5.88;;;2.20;;
38629;SDS011;24384;51.988;4.644;2023-08-17T07:52:11;3.40;;;1.98;;
38629;SDS011;24384;51.988;4.644;2023-08-17T07:54:36;9.80;;;2.53;;
38629;SDS011;24384;51.988;4.644;2023-08-17T07:57:01;9.63;;;1.95;;
38629;SDS011;24384;51.988;4.644;2023-08-17T07:59:28;10.13;;;2.20;;
38629;SDS011;24384;51.988;4.644;2023-08-17T08:01:53;10.38;;;2.03;;
38629;SDS011;24384;51.988;4.644;2023-08-17T11:21:40;6.50;;;2.35;;
38629;SDS011;24384;51.988;4.644;2023-08-17T11:24:06;5.97;;;2.28;;
38629;SDS011;24384;51.988;4.644;2023-08-17T11:26:34;7.00;;;2.22;;
38629;SDS011;24384;51.988;4.644;2023-08-17T11:29:01;3.65;;;1.73;;
38629;SDS011;24384;51.988;4.644;2023-08-17T11:31:26;4.57;;;2.05;;
38629;SDS011;24384;51.988;4.644;2023-08-17T11:33:51;4.90;;;2.03;;
38629;SDS011;24384;51.988;4.644;2023-08-17T11:36:17;7.70;;;2.05;;
38629;SDS011;24384;51.988;4.644;2023-08-17T11:38:42;5.03;;;2.17;;
38629;SDS011;24384;51.988;4.644;2023-08-17T11:41:09;7.70;;;2.80;;
38629;SDS011;24384;51.988;4.644;2023-08-17T11:43:35;6.47;;;2.95;;
38629;SDS011;24384;51.988;4.644;2023-08-17T11:46:01;9.05;;;2.65;;
38629;SDS011;24384;51.988;4.644;2023-08-17T11:48:27;5.53;;;2.13;;
38629;SDS011;24384;51.988;4.644;2023-08-17T11:50:53;6.70;;;3.10;;
38629;SDS011;24384;51.988;4.644;2023-08-17T11:53:19;10.10;;;3.20;;
38629;SDS011;24384;51.988;4.644;2023-08-17T11:55:45;4.80;;;2.95;;
38629;SDS011;24384;51.988;4.644;2023-08-17T11:58:11;8.10;;;2.70;;
38629;SDS011;24384;51.988;4.644;2023-08-17T12:00:37;6.85;;;2.92;;
38629;SDS011;24384;51.988;4.644;2023-08-17T12:03:06;8.65;;;2.30;;
38629;SDS011;24384;51.988;4.644;2023-08-17T12:05:31;8.75;;;3.17;;
38629;SDS011;24384;51.988;4.644;2023-08-17T12:07:58;7.40;;;2.80;;
38629;SDS011;24384;51.988;4.644;2023-08-17T12:10:28;7.65;;;2.78;;
38629;SDS011;24384;51.988;4.644;2023-08-17T12:12:57;6.10;;;2.72;;
38629;SDS011;24384;51.988;4.644;2023-08-17T12:15:25;9.13;;;3.53;;
38629;SDS011;24384;51.988;4.644;2023-08-17T12:17:58;7.28;;;2.47;;
38629;SDS011;24384;51.988;4.644;2023-08-17T12:20:24;10.85;;;3.17;;
38629;SDS011;24384;51.988;4.644;2023-08-17T12:22:49;5.70;;;2.67;;
38629;SDS011;24384;51.988;4.644;2023-08-17T12:25:15;5.80;;;3.30;;
38629;SDS011;24384;51.988;4.644;2023-08-17T12:27:40;6.72;;;3.15;;
38629;SDS011;24384;51.988;4.644;2023-08-17T12:30:13;3.80;;;2.80;;
38629;SDS011;24384;51.988;4.644;2023-08-17T12:32:50;4.30;;;2.60;;
38629;SDS011;24384;51.988;4.644;2023-08-17T12:35:15;5.28;;;2.50;;
38629;SDS011;24384;51.988;4.644;2023-08-17T12:37:40;3.97;;;3.20;;
38629;SDS011;24384;51.988;4.644;2023-08-17T12:40:06;4.45;;;2.75;;
38629;SDS011;24384;51.988;4.644;2023-08-17T12:42:33;5.57;;;2.85;;
38629;SDS011;24384;51.988;4.644;2023-08-17T12:44:58;6.43;;;3.58;;
38629;SDS011;24384;51.988;4.644;2023-08-17T12:47:23;5.03;;;3.33;;
38629;SDS011;24384;51.988;4.644;2023-08-17T12:49:49;9.23;;;3.30;;
38629;SDS011;24384;51.988;4.644;2023-08-17T12:52:14;7.90;;;3.70;;
38629;SDS011;24384;51.988;4.644;2023-08-17T12:54:39;7.70;;;3.30;;
38629;SDS011;24384;51.988;4.644;2023-08-17T12:57:04;6.20;;;3.10;;
38629;SDS011;24384;51.988;4.644;2023-08-17T12:59:30;9.52;;;3.25;;
38629;SDS011;24384;51.988;4.644;2023-08-17T13:01:55;9.48;;;3.60;;
38629;SDS011;24384;51.988;4.644;2023-08-17T13:04:20;6.63;;;2.92;;
38629;SDS011;24384;51.988;4.644;2023-08-17T13:06:45;5.68;;;3.10;;
38629;SDS011;24384;51.988;4.644;2023-08-17T13:09:12;4.53;;;3.03;;
38629;SDS011;24384;51.988;4.644;2023-08-17T13:11:39;8.38;;;3.17;;
38629;SDS011;24384;51.988;4.644;2023-08-17T13:14:04;7.25;;;3.35;;
38629;SDS011;24384;51.988;4.644;2023-08-17T13:16:30;4.90;;;3.47;;
38629;SDS011;24384;51.988;4.644;2023-08-17T13:18:55;13.93;;;4.32;;
38629;SDS011;24384;51.988;4.644;2023-08-17T13:21:20;7.03;;;2.85;;
38629;SDS011;24384;51.988;4.644;2023-08-17T13:23:45;6.40;;;3.80;;
38629;SDS011;24384;51.988;4.644;2023-08-17T13:26:11;11.20;;;4.15;;
38629;SDS011;24384;51.988;4.644;2023-08-17T13:28:36;6.32;;;3.08;;
38629;SDS011;24384;51.988;4.644;2023-08-17T13:31:01;4.07;;;2.97;;
38629;SDS011;24384;51.988;4.644;2023-08-17T13:33:27;8.30;;;3.67;;
38629;SDS011;24384;51.988;4.644;2023-08-17T13:35:52;5.20;;;3.30;;
38629;SDS011;24384;51.988;4.644;2023-08-17T13:38:17;7.93;;;3.47;;
38629;SDS011;24384;51.988;4.644;2023-08-17T13:40:42;7.57;;;3.90;;
38629;SDS011;24384;51.988;4.644;2023-08-17T13:43:08;4.95;;;2.90;;
38629;SDS011;24384;51.988;4.644;2023-08-17T13:45:37;8.77;;;3.38;;
38629;SDS011;24384;51.988;4.644;2023-08-17T13:48:06;5.70;;;3.55;;
38629;SDS011;24384;51.988;4.644;2023-08-17T13:50:33;6.60;;;3.50;;
38629;SDS011;24384;51.988;4.644;2023-08-17T13:52:58;4.60;;;3.03;;
38629;SDS011;24384;51.988;4.644;2023-08-17T13:55:25;5.80;;;3.80;;
38629;SDS011;24384;51.988;4.644;2023-08-17T13:57:51;7.22;;;3.40;;
38629;SDS011;24384;51.988;4.644;2023-08-17T14:00:17;7.57;;;4.15;;
38629;SDS011;24384;51.988;4.644;2023-08-17T14:02:43;8.18;;;3.92;;
38629;SDS011;24384;51.988;4.644;2023-08-17T14:05:08;13.00;;;3.40;;
38629;SDS011;24384;51.988;4.644;2023-08-17T14:07:33;6.35;;;3.38;;
38629;SDS011;24384;51.988;4.644;2023-08-17T14:09:58;6.50;;;3.78;;
38629;SDS011;24384;51.988;4.644;2023-08-17T14:12:24;8.27;;;3.65;;
38629;SDS011;24384;51.988;4.644;2023-08-17T14:14:49;6.72;;;3.75;;
38629;SDS011;24384;51.988;4.644;2023-08-17T14:17:14;7.50;;;4.15;;
38629;SDS011;24384;51.988;4.644;2023-08-17T14:19:39;8.88;;;3.72;;
38629;SDS011;24384;51.988;4.644;2023-08-17T14:22:05;15.32;;;4.43;;
38629;SDS011;24384;51.988;4.644;2023-08-17T14:24:30;8.70;;;4.10;;
38629;SDS011;24384;51.988;4.644;2023-08-17T14:26:55;9.82;;;3.90;;
38629;SDS011;24384;51.988;4.644;2023-08-17T14:29:23;5.72;;;4.20;;
38629;SDS011;24384;51.988;4.644;2023-08-17T14:31:48;8.68;;;3.88;;
38629;SDS011;24384;51.988;4.644;2023-08-17T14:34:13;11.15;;;3.83;;
38629;SDS011;24384;51.988;4.644;2023-08-17T14:36:40;7.70;;;4.03;;
38629;SDS011;24384;51.988;4.644;2023-08-17T14:39:05;8.27;;;4.15;;
38629;SDS011;24384;51.988;4.644;2023-08-17T14:41:30;9.13;;;3.60;;
38629;SDS011;24384;51.988;4.644;2023-08-17T14:43:59;6.82;;;3.58;;
38629;SDS011;24384;51.988;4.644;2023-08-17T14:46:25;24.02;;;4.57;;
38629;SDS011;24384;51.988;4.644;2023-08-17T14:48:50;7.97;;;4.03;;
38629;SDS011;24384;51.988;4.644;2023-08-17T14:51:16;10.85;;;4.78;;
38629;SDS011;24384;51.988;4.644;2023-08-17T14:53:41;6.32;;;4.03;;
38629;SDS011;24384;51.988;4.644;2023-08-17T14:56:06;11.30;;;3.33;;
38629;SDS011;24384;51.988;4.644;2023-08-17T14:58:32;8.40;;;3.58;;
38629;SDS011;24384;51.988;4.644;2023-08-17T15:00:57;7.53;;;4.13;;
38629;SDS011;24384;51.988;4.644;2023-08-17T15:03:22;5.63;;;3.30;;
38629;SDS011;24384;51.988;4.644;2023-08-17T15:05:47;5.60;;;3.60;;
38629;SDS011;24384;51.988;4.644;2023-08-17T15:08:13;7.53;;;3.40;;
38629;SDS011;24384;51.988;4.644;2023-08-17T15:10:38;7.88;;;3.80;;
38629;SDS011;24384;51.988;4.644;2023-08-17T15:13:04;6.60;;;3.38;;
38629;SDS011;24384;51.988;4.644;2023-08-17T15:15:29;5.63;;;3.78;;
38629;SDS011;24384;51.988;4.644;2023-08-17T15:17:54;7.90;;;3.30;;
38629;SDS011;24384;51.988;4.644;2023-08-17T15:20:20;8.82;;;4.03;;
38629;SDS011;24384;51.988;4.644;2023-08-17T15:22:45;4.90;;;3.65;;
38629;SDS011;24384;51.988;4.644;2023-08-17T15:25:10;7.00;;;4.22;;
38629;SDS011;24384;51.988;4.644;2023-08-17T15:27:35;10.05;;;4.45;;
38629;SDS011;24384;51.988;4.644;2023-08-17T15:30:01;6.95;;;4.38;;
38629;SDS011;24384;51.988;4.644;2023-08-17T15:32:26;8.77;;;4.28;;
38629;SDS011;24384;51.988;4.644;2023-08-17T15:34:51;6.60;;;3.90;;
38629;SDS011;24384;51.988;4.644;2023-08-17T15:37:16;6.45;;;3.42;;
38629;SDS011;24384;51.988;4.644;2023-08-17T15:39:42;8.15;;;3.83;;
38629;SDS011;24384;51.988;4.644;2023-08-17T15:42:07;7.05;;;3.72;;
38629;SDS011;24384;51.988;4.644;2023-08-17T15:44:32;6.28;;;3.63;;
38629;SDS011;24384;51.988;4.644;2023-08-17T15:46:58;4.10;;;3.28;;
38629;SDS011;24384;51.988;4.644;2023-08-17T15:49:23;5.05;;;3.15;;
38629;SDS011;24384;51.988;4.644;2023-08-17T15:51:49;8.70;;;3.83;;
38629;SDS011;24384;51.988;4.644;2023-08-17T15:54:14;8.48;;;3.60;;
38629;SDS011;24384;51.988;4.644;2023-08-17T15:56:39;5.53;;;3.80;;
38629;SDS011;24384;51.988;4.644;2023-08-17T15:59:05;6.82;;;4.60;;
38629;SDS011;24384;51.988;4.644;2023-08-17T16:01:30;9.00;;;4.15;;
38629;SDS011;24384;51.988;4.644;2023-08-17T16:03:56;10.68;;;4.15;;
38629;SDS011;24384;51.988;4.644;2023-08-17T16:06:21;6.97;;;4.65;;
38629;SDS011;24384;51.988;4.644;2023-08-17T16:08:46;7.25;;;3.83;;
38629;SDS011;24384;51.988;4.644;2023-08-17T16:11:11;7.57;;;3.97;;
38629;SDS011;24384;51.988;4.644;2023-08-17T16:13:37;6.10;;;3.85;;
38629;SDS011;24384;51.988;4.644;2023-08-17T16:16:03;6.30;;;4.20;;
38629;SDS011;24384;51.988;4.644;2023-08-17T16:18:29;8.70;;;5.07;;
38629;SDS011;24384;51.988;4.644;2023-08-17T16:20:54;8.93;;;5.07;;
38629;SDS011;24384;51.988;4.644;2023-08-17T16:23:19;6.75;;;4.10;;
38629;SDS011;24384;51.988;4.644;2023-08-17T16:25:45;5.70;;;4.13;;
38629;SDS011;24384;51.988;4.644;2023-08-17T16:28:10;6.53;;;4.78;;
38629;SDS011;24384;51.988;4.644;2023-08-17T16:30:35;6.57;;;4.07;;
38629;SDS011;24384;51.988;4.644;2023-08-17T16:33:02;7.18;;;4.70;;
38629;SDS011;24384;51.988;4.644;2023-08-17T16:35:29;8.52;;;4.82;;
38629;SDS011;24384;51.988;4.644;2023-08-17T16:37:54;9.57;;;4.47;;
38629;SDS011;24384;51.988;4.644;2023-08-17T16:40:19;9.00;;;4.50;;
38629;SDS011;24384;51.988;4.644;2023-08-17T16:42:45;8.30;;;5.30;;
38629;SDS011;24384;51.988;4.644;2023-08-17T16:45:11;7.32;;;4.45;;
38629;SDS011;24384;51.988;4.644;2023-08-17T16:47:37;8.95;;;4.25;;
38629;SDS011;24384;51.988;4.644;2023-08-17T16:50:02;8.80;;;4.90;;
38629;SDS011;24384;51.988;4.644;2023-08-17T16:52:27;7.65;;;5.03;;
38629;SDS011;24384;51.988;4.644;2023-08-17T16:54:53;8.10;;;4.82;;
38629;SDS011;24384;51.988;4.644;2023-08-17T16:57:18;6.97;;;4.65;;
38629;SDS011;24384;51.988;4.644;2023-08-17T16:59:43;8.02;;;5.40;;
38629;SDS011;24384;51.988;4.644;2023-08-17T17:02:09;9.55;;;4.55;;
38629;SDS011;24384;51.988;4.644;2023-08-17T17:04:34;6.35;;;4.85;;
38629;SDS011;24384;51.988;4.644;2023-08-17T17:07:00;7.15;;;5.07;;
38629;SDS011;24384;51.988;4.644;2023-08-17T17:09:26;10.48;;;5.20;;
38629;SDS011;24384;51.988;4.644;2023-08-17T17:11:51;9.38;;;4.32;;
38629;SDS011;24384;51.988;4.644;2023-08-17T17:14:17;9.82;;;5.65;;
38629;SDS011;24384;51.988;4.644;2023-08-17T17:16:42;7.53;;;4.65;;
38629;SDS011;24384;51.988;4.644;2023-08-17T17:19:08;8.85;;;5.30;;
38629;SDS011;24384;51.988;4.644;2023-08-17T17:21:33;8.38;;;4.88;;
38629;SDS011;24384;51.988;4.644;2023-08-17T17:23:58;8.85;;;4.75;;
38629;SDS011;24384;51.988;4.644;2023-08-17T17:26:23;7.95;;;4.88;;
38629;SDS011;24384;51.988;4.644;2023-08-17T17:28:49;7.03;;;4.45;;
38629;SDS011;24384;51.988;4.644;2023-08-17T17:31:15;8.77;;;5.05;;
38629;SDS011;24384;51.988;4.644;2023-08-17T17:33:40;7.45;;;5.07;;
38629;SDS011;24384;51.988;4.644;2023-08-17T17:36:06;8.07;;;5.13;;
38629;SDS011;24384;51.988;4.644;2023-08-17T17:38:31;14.65;;;5.30;;
38629;SDS011;24384;51.988;4.644;2023-08-17T17:40:56;7.55;;;4.80;;
38629;SDS011;24384;51.988;4.644;2023-08-17T17:43:22;10.00;;;5.25;;
38629;SDS011;24384;51.988;4.644;2023-08-17T17:45:48;7.47;;;5.15;;
38629;SDS011;24384;51.988;4.644;2023-08-17T17:48:15;10.00;;;5.35;;
38629;SDS011;24384;51.988;4.644;2023-08-17T17:50:40;9.13;;;5.03;;
38629;SDS011;24384;51.988;4.644;2023-08-17T17:53:05;6.75;;;4.75;;
38629;SDS011;24384;51.988;4.644;2023-08-17T17:55:31;9.95;;;4.82;;
38629;SDS011;24384;51.988;4.644;2023-08-17T17:57:57;14.10;;;5.18;;
38629;SDS011;24384;51.988;4.644;2023-08-17T18:00:22;6.50;;;5.00;;
38629;SDS011;24384;51.988;4.644;2023-08-17T18:02:47;8.77;;;5.13;;